sensor_id;sensor_type;location;lat;lon;timestamp;P1;P2;P0
56069;PMS5003;41944;52.078;-0.058;2022-10-16T00:00:58;4;4;
56069;PMS5003;41944;52.078;-0.058;2022-10-16T00:03:30;5;5;
56069;PMS5003;41944;52.078;-0.058;2022-10-16T00:05:58;5;4;
56069;PMS5003;41944;52.078;-0.058;2022-10-16T00:08:26;5;4;
56069;PMS5003;41944;52.078;-0.058;2022-10-16T00:10:58;13;3;
56069;PMS5003;41944;52.078;-0.058;2022-10-16T00:13:26;6;3;
56069;PMS5003;41944;52.078;-0.058;2022-10-16T00:15:54;9;4;
56069;PMS5003;41944;52.078;-0.058;2022-10-16T00:18:22;5;2;
56069;PMS5003;41944;52.078;-0.058;2022-10-16T00:20:51;9;5;
56069;PMS5003;41944;52.078;-0.058;2022-10-16T00:23:18;6;5;
56069;PMS5003;41944;52.078;-0.058;2022-10-16T00:25:54;6;4;
56069;PMS5003;41944;52.078;-0.058;2022-10-16T00:28:22;13;9;
56069;PMS5003;41944;52.078;-0.058;2022-10-16T00:30:49;8;5;
56069;PMS5003;41944;52.078;-0.058;2022-10-16T00:33:17;9;7;
56069;PMS5003;41944;52.078;-0.058;2022-10-16T00:35:44;14;6;
56069;PMS5003;41944;52.078;-0.058;2022-10-16T00:38:11;9;4;
56069;PMS5003;41944;52.078;-0.058;2022-10-16T00:40:38;7;5;
56069;PMS5003;41944;52.078;-0.058;2022-10-16T00:43:09;5;3;
56069;PMS5003;41944;52.078;-0.058;2022-10-16T00:45:40;11;6;
56069;PMS5003;41944;52.078;-0.058;2022-10-16T00:48:10;8;5;
56069;PMS5003;41944;52.078;-0.058;2022-10-16T00:50:39;6;5;
56069;PMS5003;41944;52.078;-0.058;2022-10-16T00:53:07;6;4;
56069;PMS5003;41944;52.078;-0.058;2022-10-16T00:55:34;5;4;
56069;PMS5003;41944;52.078;-0.058;2022-10-16T00:58:02;10;6;
56069;PMS5003;41944;52.078;-0.058;2022-10-16T01:00:28;9;5;
56069;PMS5003;41944;52.078;-0.058;2022-10-16T01:02:58;6;6;
56069;PMS5003;41944;52.078;-0.058;2022-10-16T01:05:27;10;7;
56069;PMS5003;41944;52.078;-0.058;2022-10-16T01:08:02;5;3;
56069;PMS5003;41944;52.078;-0.058;2022-10-16T01:10:35;7;6;
56069;PMS5003;41944;52.078;-0.058;2022-10-16T01:13:07;7;7;
56069;PMS5003;41944;52.078;-0.058;2022-10-16T01:15:37;7;6;
56069;PMS5003;41944;52.078;-0.058;2022-10-16T01:18:13;12;4;
56069;PMS5003;41944;52.078;-0.058;2022-10-16T01:20:45;6;1;
56069;PMS5003;41944;52.078;-0.058;2022-10-16T01:23:21;8;2;
56069;PMS5003;41944;52.078;-0.058;2022-10-16T01:26:11;5;3;
56069;PMS5003;41944;52.078;-0.058;2022-10-16T01:28:48;7;5;
56069;PMS5003;41944;52.078;-0.058;2022-10-16T01:31:22;6;4;
56069;PMS5003;41944;52.078;-0.058;2022-10-16T01:33:56;6;5;
56069;PMS5003;41944;52.078;-0.058;2022-10-16T01:36:31;11;5;
56069;PMS5003;41944;52.078;-0.058;2022-10-16T01:39:05;8;7;
56069;PMS5003;41944;52.078;-0.058;2022-10-16T01:41:38;5;5;
56069;PMS5003;41944;52.078;-0.058;2022-10-16T01:44:10;10;6;
56069;PMS5003;41944;52.078;-0.058;2022-10-16T01:46:41;8;5;
56069;PMS5003;41944;52.078;-0.058;2022-10-16T01:49:12;7;5;
56069;PMS5003;41944;52.078;-0.058;2022-10-16T01:51:40;11;5;
56069;PMS5003;41944;52.078;-0.058;2022-10-16T01:54:11;9;6;
56069;PMS5003;41944;52.078;-0.058;2022-10-16T01:56:42;8;7;
56069;PMS5003;41944;52.078;-0.058;2022-10-16T01:59:12;8;6;
56069;PMS5003;41944;52.078;-0.058;2022-10-16T02:01:44;14;7;
56069;PMS5003;41944;52.078;-0.058;2022-10-16T02:04:22;14;9;
56069;PMS5003;41944;52.078;-0.058;2022-10-16T02:06:58;5;5;
56069;PMS5003;41944;52.078;-0.058;2022-10-16T02:09:25;12;6;
56069;PMS5003;41944;52.078;-0.058;2022-10-16T02:11:53;10;5;
56069;PMS5003;41944;52.078;-0.058;2022-10-16T02:14:25;7;6;
56069;PMS5003;41944;52.078;-0.058;2022-10-16T02:16:53;10;5;
56069;PMS5003;41944;52.078;-0.058;2022-10-16T02:19:19;13;6;
56069;PMS5003;41944;52.078;-0.058;2022-10-16T02:21:49;12;6;
56069;PMS5003;41944;52.078;-0.058;2022-10-16T02:24:22;6;6;
56069;PMS5003;41944;52.078;-0.058;2022-10-16T02:27:00;8;5;
56069;PMS5003;41944;52.078;-0.058;2022-10-16T02:29:33;6;5;
56069;PMS5003;41944;52.078;-0.058;2022-10-16T02:32:06;6;4;
56069;PMS5003;41944;52.078;-0.058;2022-10-16T02:34:36;5;4;
56069;PMS5003;41944;52.078;-0.058;2022-10-16T02:37:05;12;4;
56069;PMS5003;41944;52.078;-0.058;2022-10-16T02:39:33;7;6;
56069;PMS5003;41944;52.078;-0.058;2022-10-16T02:42:01;5;3;
56069;PMS5003;41944;52.078;-0.058;2022-10-16T02:44:29;8;5;
56069;PMS5003;41944;52.078;-0.058;2022-10-16T02:46:55;10;6;
56069;PMS5003;41944;52.078;-0.058;2022-10-16T02:49:22;9;7;
56069;PMS5003;41944;52.078;-0.058;2022-10-16T02:51:49;5;5;
56069;PMS5003;41944;52.078;-0.058;2022-10-16T02:54:17;3;3;
56069;PMS5003;41944;52.078;-0.058;2022-10-16T02:56:44;7;4;
56069;PMS5003;41944;52.078;-0.058;2022-10-16T02:59:11;2;2;
56069;PMS5003;41944;52.078;-0.058;2022-10-16T03:01:37;5;4;
56069;PMS5003;41944;52.078;-0.058;2022-10-16T03:04:05;8;6;
56069;PMS5003;41944;52.078;-0.058;2022-10-16T03:06:32;6;4;
56069;PMS5003;41944;52.078;-0.058;2022-10-16T03:08:59;7;5;
56069;PMS5003;41944;52.078;-0.058;2022-10-16T03:11:25;9;6;
56069;PMS5003;41944;52.078;-0.058;2022-10-16T03:13:52;6;6;
56069;PMS5003;41944;52.078;-0.058;2022-10-16T03:16:19;5;5;
56069;PMS5003;41944;52.078;-0.058;2022-10-16T03:18:47;7;5;
56069;PMS5003;41944;52.078;-0.058;2022-10-16T03:21:15;10;7;
56069;PMS5003;41944;52.078;-0.058;2022-10-16T03:23:42;10;6;
56069;PMS5003;41944;52.078;-0.058;2022-10-16T03:26:09;6;5;
56069;PMS5003;41944;52.078;-0.058;2022-10-16T03:28:35;8;4;
56069;PMS5003;41944;52.078;-0.058;2022-10-16T03:31:02;7;1;
56069;PMS5003;41944;52.078;-0.058;2022-10-16T03:33:29;4;1;
56069;PMS5003;41944;52.078;-0.058;2022-10-16T03:35:56;7;4;
56069;PMS5003;41944;52.078;-0.058;2022-10-16T03:38:24;2;2;
56069;PMS5003;41944;52.078;-0.058;2022-10-16T03:40:51;6;3;
56069;PMS5003;41944;52.078;-0.058;2022-10-16T03:43:18;6;3;
56069;PMS5003;41944;52.078;-0.058;2022-10-16T03:45:45;0;0;
56069;PMS5003;41944;52.078;-0.058;2022-10-16T03:48:12;1;1;
56069;PMS5003;41944;52.078;-0.058;2022-10-16T03:50:39;3;3;
56069;PMS5003;41944;52.078;-0.058;2022-10-16T03:53:06;7;2;
56069;PMS5003;41944;52.078;-0.058;2022-10-16T03:55:34;4;1;
56069;PMS5003;41944;52.078;-0.058;2022-10-16T03:58:01;3;2;
56069;PMS5003;41944;52.078;-0.058;2022-10-16T04:00:28;6;2;
56069;PMS5003;41944;52.078;-0.058;2022-10-16T04:02:55;2;0;
56069;PMS5003;41944;52.078;-0.058;2022-10-16T04:05:21;4;3;
56069;PMS5003;41944;52.078;-0.058;2022-10-16T04:07:48;4;2;
56069;PMS5003;41944;52.078;-0.058;2022-10-16T04:10:16;1;1;
56069;PMS5003;41944;52.078;-0.058;2022-10-16T04:12:43;5;3;
56069;PMS5003;41944;52.078;-0.058;2022-10-16T04:15:10;3;2;
56069;PMS5003;41944;52.078;-0.058;2022-10-16T04:17:37;5;2;
56069;PMS5003;41944;52.078;-0.058;2022-10-16T04:20:04;3;2;
56069;PMS5003;41944;52.078;-0.058;2022-10-16T04:22:33;4;1;
56069;PMS5003;41944;52.078;-0.058;2022-10-16T04:24:59;2;1;
56069;PMS5003;41944;52.078;-0.058;2022-10-16T04:27:26;2;2;
56069;PMS5003;41944;52.078;-0.058;2022-10-16T04:29:53;4;1;
56069;PMS5003;41944;52.078;-0.058;2022-10-16T04:32:20;3;2;
56069;PMS5003;41944;52.078;-0.058;2022-10-16T04:34:47;4;2;
56069;PMS5003;41944;52.078;-0.058;2022-10-16T04:37:14;2;2;
56069;PMS5003;41944;52.078;-0.058;2022-10-16T04:39:41;3;1;
56069;PMS5003;41944;52.078;-0.058;2022-10-16T04:42:09;5;2;
56069;PMS5003;41944;52.078;-0.058;2022-10-16T04:44:35;5;1;
56069;PMS5003;41944;52.078;-0.058;2022-10-16T04:47:02;2;2;
56069;PMS5003;41944;52.078;-0.058;2022-10-16T04:49:29;2;1;
56069;PMS5003;41944;52.078;-0.058;2022-10-16T04:51:56;2;0;
56069;PMS5003;41944;52.078;-0.058;2022-10-16T04:54:23;2;1;
56069;PMS5003;41944;52.078;-0.058;2022-10-16T04:56:50;3;0;
56069;PMS5003;41944;52.078;-0.058;2022-10-16T04:59:17;2;2;
56069;PMS5003;41944;52.078;-0.058;2022-10-16T05:01:45;2;2;
56069;PMS5003;41944;52.078;-0.058;2022-10-16T05:04:12;4;2;
56069;PMS5003;41944;52.078;-0.058;2022-10-16T05:06:40;2;2;
56069;PMS5003;41944;52.078;-0.058;2022-10-16T05:09:09;4;0;
56069;PMS5003;41944;52.078;-0.058;2022-10-16T05:11:36;4;2;
56069;PMS5003;41944;52.078;-0.058;2022-10-16T05:14:03;2;1;
56069;PMS5003;41944;52.078;-0.058;2022-10-16T05:16:30;4;1;
56069;PMS5003;41944;52.078;-0.058;2022-10-16T05:18:57;4;1;
56069;PMS5003;41944;52.078;-0.058;2022-10-16T05:21:24;4;1;
56069;PMS5003;41944;52.078;-0.058;2022-10-16T05:23:52;6;2;
56069;PMS5003;41944;52.078;-0.058;2022-10-16T05:26:20;3;0;
56069;PMS5003;41944;52.078;-0.058;2022-10-16T05:28:47;6;1;
56069;PMS5003;41944;52.078;-0.058;2022-10-16T05:31:15;2;1;
56069;PMS5003;41944;52.078;-0.058;2022-10-16T05:33:42;5;3;
56069;PMS5003;41944;52.078;-0.058;2022-10-16T05:36:09;0;0;
56069;PMS5003;41944;52.078;-0.058;2022-10-16T05:38:36;3;1;
56069;PMS5003;41944;52.078;-0.058;2022-10-16T05:41:04;2;2;
56069;PMS5003;41944;52.078;-0.058;2022-10-16T05:43:32;3;1;
56069;PMS5003;41944;52.078;-0.058;2022-10-16T05:46:00;3;2;
56069;PMS5003;41944;52.078;-0.058;2022-10-16T05:48:28;2;1;
56069;PMS5003;41944;52.078;-0.058;2022-10-16T05:50:56;2;1;
56069;PMS5003;41944;52.078;-0.058;2022-10-16T05:53:24;7;2;
56069;PMS5003;41944;52.078;-0.058;2022-10-16T05:55:51;4;1;
56069;PMS5003;41944;52.078;-0.058;2022-10-16T05:58:19;1;1;
56069;PMS5003;41944;52.078;-0.058;2022-10-16T06:00:52;3;2;
56069;PMS5003;41944;52.078;-0.058;2022-10-16T06:03:19;2;1;
56069;PMS5003;41944;52.078;-0.058;2022-10-16T06:05:47;2;1;
56069;PMS5003;41944;52.078;-0.058;2022-10-16T06:08:14;2;1;
56069;PMS5003;41944;52.078;-0.058;2022-10-16T06:10:42;4;2;
56069;PMS5003;41944;52.078;-0.058;2022-10-16T06:13:10;1;0;
56069;PMS5003;41944;52.078;-0.058;2022-10-16T06:15:37;2;0;
56069;PMS5003;41944;52.078;-0.058;2022-10-16T06:18:05;3;1;
56069;PMS5003;41944;52.078;-0.058;2022-10-16T06:20:32;0;0;
56069;PMS5003;41944;52.078;-0.058;2022-10-16T06:22:59;6;2;
56069;PMS5003;41944;52.078;-0.058;2022-10-16T06:25:26;2;2;
56069;PMS5003;41944;52.078;-0.058;2022-10-16T06:27:53;6;1;
56069;PMS5003;41944;52.078;-0.058;2022-10-16T06:30:20;3;2;
56069;PMS5003;41944;52.078;-0.058;2022-10-16T06:32:47;2;2;
56069;PMS5003;41944;52.078;-0.058;2022-10-16T06:35:14;5;2;
56069;PMS5003;41944;52.078;-0.058;2022-10-16T06:37:41;3;2;
56069;PMS5003;41944;52.078;-0.058;2022-10-16T06:40:09;5;3;
56069;PMS5003;41944;52.078;-0.058;2022-10-16T06:42:36;4;1;
56069;PMS5003;41944;52.078;-0.058;2022-10-16T06:45:03;4;3;
56069;PMS5003;41944;52.078;-0.058;2022-10-16T06:47:31;3;1;
56069;PMS5003;41944;52.078;-0.058;2022-10-16T06:49:58;5;3;
56069;PMS5003;41944;52.078;-0.058;2022-10-16T06:52:27;4;3;
56069;PMS5003;41944;52.078;-0.058;2022-10-16T06:54:54;2;2;
56069;PMS5003;41944;52.078;-0.058;2022-10-16T06:57:21;5;2;
56069;PMS5003;41944;52.078;-0.058;2022-10-16T06:59:48;6;2;
56069;PMS5003;41944;52.078;-0.058;2022-10-16T07:02:15;4;1;
56069;PMS5003;41944;52.078;-0.058;2022-10-16T07:04:42;3;1;
56069;PMS5003;41944;52.078;-0.058;2022-10-16T07:07:09;5;2;
56069;PMS5003;41944;52.078;-0.058;2022-10-16T07:09:36;1;1;
56069;PMS5003;41944;52.078;-0.058;2022-10-16T07:12:03;1;1;
56069;PMS5003;41944;52.078;-0.058;2022-10-16T07:14:30;7;2;
56069;PMS5003;41944;52.078;-0.058;2022-10-16T07:16:57;6;2;
56069;PMS5003;41944;52.078;-0.058;2022-10-16T07:19:24;2;2;
56069;PMS5003;41944;52.078;-0.058;2022-10-16T07:21:51;3;2;
56069;PMS5003;41944;52.078;-0.058;2022-10-16T07:24:18;3;0;
56069;PMS5003;41944;52.078;-0.058;2022-10-16T07:26:45;3;0;
56069;PMS5003;41944;52.078;-0.058;2022-10-16T07:29:13;1;0;
56069;PMS5003;41944;52.078;-0.058;2022-10-16T07:31:43;0;0;
56069;PMS5003;41944;52.078;-0.058;2022-10-16T07:34:11;3;1;
56069;PMS5003;41944;52.078;-0.058;2022-10-16T07:36:41;2;0;
56069;PMS5003;41944;52.078;-0.058;2022-10-16T07:39:08;5;2;
56069;PMS5003;41944;52.078;-0.058;2022-10-16T07:41:35;6;1;
56069;PMS5003;41944;52.078;-0.058;2022-10-16T07:44:02;2;2;
56069;PMS5003;41944;52.078;-0.058;2022-10-16T07:46:29;2;1;
56069;PMS5003;41944;52.078;-0.058;2022-10-16T07:48:57;7;2;
56069;PMS5003;41944;52.078;-0.058;2022-10-16T07:51:24;2;1;
56069;PMS5003;41944;52.078;-0.058;2022-10-16T07:53:52;3;1;
56069;PMS5003;41944;52.078;-0.058;2022-10-16T07:56:20;1;0;
56069;PMS5003;41944;52.078;-0.058;2022-10-16T07:58:47;4;2;
56069;PMS5003;41944;52.078;-0.058;2022-10-16T08:01:16;3;2;
56069;PMS5003;41944;52.078;-0.058;2022-10-16T08:03:44;3;3;
56069;PMS5003;41944;52.078;-0.058;2022-10-16T08:06:12;4;2;
56069;PMS5003;41944;52.078;-0.058;2022-10-16T08:08:40;8;1;
56069;PMS5003;41944;52.078;-0.058;2022-10-16T08:11:08;4;2;
56069;PMS5003;41944;52.078;-0.058;2022-10-16T08:13:35;4;2;
56069;PMS5003;41944;52.078;-0.058;2022-10-16T08:16:02;5;3;
56069;PMS5003;41944;52.078;-0.058;2022-10-16T08:18:30;4;2;
56069;PMS5003;41944;52.078;-0.058;2022-10-16T08:20:58;8;3;
56069;PMS5003;41944;52.078;-0.058;2022-10-16T08:23:26;4;3;
56069;PMS5003;41944;52.078;-0.058;2022-10-16T08:25:53;1;1;
56069;PMS5003;41944;52.078;-0.058;2022-10-16T08:28:22;5;3;
56069;PMS5003;41944;52.078;-0.058;2022-10-16T08:30:50;2;1;
56069;PMS5003;41944;52.078;-0.058;2022-10-16T08:33:16;6;1;
56069;PMS5003;41944;52.078;-0.058;2022-10-16T08:35:50;2;1;
56069;PMS5003;41944;52.078;-0.058;2022-10-16T08:38:18;4;1;
56069;PMS5003;41944;52.078;-0.058;2022-10-16T08:40:45;3;0;
56069;PMS5003;41944;52.078;-0.058;2022-10-16T08:43:20;1;0;
56069;PMS5003;41944;52.078;-0.058;2022-10-16T08:46:04;2;2;
56069;PMS5003;41944;52.078;-0.058;2022-10-16T08:48:43;3;1;
56069;PMS5003;41944;52.078;-0.058;2022-10-16T08:51:15;1;0;
56069;PMS5003;41944;52.078;-0.058;2022-10-16T08:53:49;3;1;
56069;PMS5003;41944;52.078;-0.058;2022-10-16T08:56:19;5;2;
56069;PMS5003;41944;52.078;-0.058;2022-10-16T08:58:46;7;1;
56069;PMS5003;41944;52.078;-0.058;2022-10-16T09:01:15;5;1;
56069;PMS5003;41944;52.078;-0.058;2022-10-16T09:04:04;2;1;
56069;PMS5003;41944;52.078;-0.058;2022-10-16T09:07:01;6;0;
56069;PMS5003;41944;52.078;-0.058;2022-10-16T09:09:40;4;2;
56069;PMS5003;41944;52.078;-0.058;2022-10-16T09:12:20;0;0;
56069;PMS5003;41944;52.078;-0.058;2022-10-16T09:14:57;2;1;
56069;PMS5003;41944;52.078;-0.058;2022-10-16T09:17:32;2;0;
56069;PMS5003;41944;52.078;-0.058;2022-10-16T09:20:12;3;1;
56069;PMS5003;41944;52.078;-0.058;2022-10-16T09:22:46;2;2;
56069;PMS5003;41944;52.078;-0.058;2022-10-16T09:25:14;2;1;
56069;PMS5003;41944;52.078;-0.058;2022-10-16T09:27:43;7;2;
56069;PMS5003;41944;52.078;-0.058;2022-10-16T09:30:14;3;1;
56069;PMS5003;41944;52.078;-0.058;2022-10-16T09:32:43;4;2;
56069;PMS5003;41944;52.078;-0.058;2022-10-16T09:35:14;1;1;
56069;PMS5003;41944;52.078;-0.058;2022-10-16T09:37:44;3;0;
56069;PMS5003;41944;52.078;-0.058;2022-10-16T09:40:13;7;0;
56069;PMS5003;41944;52.078;-0.058;2022-10-16T09:42:52;5;2;
56069;PMS5003;41944;52.078;-0.058;2022-10-16T09:45:27;3;1;
56069;PMS5003;41944;52.078;-0.058;2022-10-16T09:47:55;2;1;
56069;PMS5003;41944;52.078;-0.058;2022-10-16T09:50:23;2;2;
56069;PMS5003;41944;52.078;-0.058;2022-10-16T09:53:02;5;1;
56069;PMS5003;41944;52.078;-0.058;2022-10-16T09:55:30;6;2;
56069;PMS5003;41944;52.078;-0.058;2022-10-16T09:57:58;1;0;
56069;PMS5003;41944;52.078;-0.058;2022-10-16T10:00:25;2;0;
56069;PMS5003;41944;52.078;-0.058;2022-10-16T10:02:52;1;1;
56069;PMS5003;41944;52.078;-0.058;2022-10-16T10:05:21;3;2;
56069;PMS5003;41944;52.078;-0.058;2022-10-16T10:07:54;2;1;
56069;PMS5003;41944;52.078;-0.058;2022-10-16T10:10:23;3;1;
56069;PMS5003;41944;52.078;-0.058;2022-10-16T10:12:52;4;0;
56069;PMS5003;41944;52.078;-0.058;2022-10-16T10:15:21;1;1;
56069;PMS5003;41944;52.078;-0.058;2022-10-16T10:17:50;1;1;
56069;PMS5003;41944;52.078;-0.058;2022-10-16T10:20:22;1;1;
56069;PMS5003;41944;52.078;-0.058;2022-10-16T10:22:53;2;2;
56069;PMS5003;41944;52.078;-0.058;2022-10-16T10:25:24;1;1;
56069;PMS5003;41944;52.078;-0.058;2022-10-16T10:28:06;1;1;
56069;PMS5003;41944;52.078;-0.058;2022-10-16T10:30:46;1;1;
56069;PMS5003;41944;52.078;-0.058;2022-10-16T10:33:20;1;0;
56069;PMS5003;41944;52.078;-0.058;2022-10-16T10:35:56;0;0;
56069;PMS5003;41944;52.078;-0.058;2022-10-16T10:38:34;1;1;
56069;PMS5003;41944;52.078;-0.058;2022-10-16T10:41:15;1;1;
56069;PMS5003;41944;52.078;-0.058;2022-10-16T10:43:56;2;1;
56069;PMS5003;41944;52.078;-0.058;2022-10-16T10:46:32;1;1;
56069;PMS5003;41944;52.078;-0.058;2022-10-16T10:49:06;5;1;
56069;PMS5003;41944;52.078;-0.058;2022-10-16T10:51:44;3;0;
56069;PMS5003;41944;52.078;-0.058;2022-10-16T10:54:24;2;1;
56069;PMS5003;41944;52.078;-0.058;2022-10-16T10:57:00;3;2;
56069;PMS5003;41944;52.078;-0.058;2022-10-16T10:59:40;1;1;
56069;PMS5003;41944;52.078;-0.058;2022-10-16T11:02:21;2;0;
56069;PMS5003;41944;52.078;-0.058;2022-10-16T11:04:57;2;2;
56069;PMS5003;41944;52.078;-0.058;2022-10-16T11:07:37;1;1;
56069;PMS5003;41944;52.078;-0.058;2022-10-16T11:10:12;1;0;
56069;PMS5003;41944;52.078;-0.058;2022-10-16T11:12:42;0;0;
56069;PMS5003;41944;52.078;-0.058;2022-10-16T11:15:14;1;1;
56069;PMS5003;41944;52.078;-0.058;2022-10-16T11:17:48;3;1;
56069;PMS5003;41944;52.078;-0.058;2022-10-16T11:20:20;5;2;
56069;PMS5003;41944;52.078;-0.058;2022-10-16T11:22:53;1;0;
56069;PMS5003;41944;52.078;-0.058;2022-10-16T11:25:26;6;1;
56069;PMS5003;41944;52.078;-0.058;2022-10-16T11:27:57;2;2;
56069;PMS5003;41944;52.078;-0.058;2022-10-16T11:30:29;1;0;
56069;PMS5003;41944;52.078;-0.058;2022-10-16T11:33:10;6;1;
56069;PMS5003;41944;52.078;-0.058;2022-10-16T11:35:53;3;1;
56069;PMS5003;41944;52.078;-0.058;2022-10-16T11:38:26;0;0;
56069;PMS5003;41944;52.078;-0.058;2022-10-16T11:41:01;1;0;
56069;PMS5003;41944;52.078;-0.058;2022-10-16T11:43:37;2;1;
56069;PMS5003;41944;52.078;-0.058;2022-10-16T11:46:10;3;1;
56069;PMS5003;41944;52.078;-0.058;2022-10-16T11:48:40;4;1;
56069;PMS5003;41944;52.078;-0.058;2022-10-16T11:51:14;0;0;
56069;PMS5003;41944;52.078;-0.058;2022-10-16T11:53:51;1;1;
56069;PMS5003;41944;52.078;-0.058;2022-10-16T11:56:24;3;1;
56069;PMS5003;41944;52.078;-0.058;2022-10-16T11:58:53;1;1;
56069;PMS5003;41944;52.078;-0.058;2022-10-16T12:01:27;0;0;
56069;PMS5003;41944;52.078;-0.058;2022-10-16T12:04:04;2;0;
56069;PMS5003;41944;52.078;-0.058;2022-10-16T12:06:41;1;0;
56069;PMS5003;41944;52.078;-0.058;2022-10-16T12:09:15;1;0;
56069;PMS5003;41944;52.078;-0.058;2022-10-16T12:11:48;0;0;
56069;PMS5003;41944;52.078;-0.058;2022-10-16T12:14:19;1;1;
56069;PMS5003;41944;52.078;-0.058;2022-10-16T12:17:00;2;2;
56069;PMS5003;41944;52.078;-0.058;2022-10-16T12:19:29;3;2;
56069;PMS5003;41944;52.078;-0.058;2022-10-16T12:21:59;2;0;
56069;PMS5003;41944;52.078;-0.058;2022-10-16T12:24:31;0;0;
56069;PMS5003;41944;52.078;-0.058;2022-10-16T12:27:00;1;1;
56069;PMS5003;41944;52.078;-0.058;2022-10-16T12:29:31;0;0;
56069;PMS5003;41944;52.078;-0.058;2022-10-16T12:32:01;2;2;
56069;PMS5003;41944;52.078;-0.058;2022-10-16T12:34:32;1;1;
56069;PMS5003;41944;52.078;-0.058;2022-10-16T12:37:10;1;0;
56069;PMS5003;41944;52.078;-0.058;2022-10-16T12:39:41;1;1;
56069;PMS5003;41944;52.078;-0.058;2022-10-16T12:42:41;0;0;
56069;PMS5003;41944;52.078;-0.058;2022-10-16T12:45:25;0;0;
56069;PMS5003;41944;52.078;-0.058;2022-10-16T12:47:55;1;1;
56069;PMS5003;41944;52.078;-0.058;2022-10-16T12:50:24;1;1;
56069;PMS5003;41944;52.078;-0.058;2022-10-16T12:52:54;3;1;
56069;PMS5003;41944;52.078;-0.058;2022-10-16T12:55:22;2;0;
56069;PMS5003;41944;52.078;-0.058;2022-10-16T12:57:57;1;0;
56069;PMS5003;41944;52.078;-0.058;2022-10-16T13:00:37;3;0;
56069;PMS5003;41944;52.078;-0.058;2022-10-16T13:03:20;5;1;
56069;PMS5003;41944;52.078;-0.058;2022-10-16T13:06:02;1;1;
56069;PMS5003;41944;52.078;-0.058;2022-10-16T13:08:42;1;1;
56069;PMS5003;41944;52.078;-0.058;2022-10-16T13:11:23;2;1;
56069;PMS5003;41944;52.078;-0.058;2022-10-16T13:14:05;3;2;
56069;PMS5003;41944;52.078;-0.058;2022-10-16T13:16:50;2;1;
56069;PMS5003;41944;52.078;-0.058;2022-10-16T13:19:27;1;1;
56069;PMS5003;41944;52.078;-0.058;2022-10-16T13:22:03;0;0;
56069;PMS5003;41944;52.078;-0.058;2022-10-16T13:24:43;2;2;
56069;PMS5003;41944;52.078;-0.058;2022-10-16T13:27:23;1;1;
56069;PMS5003;41944;52.078;-0.058;2022-10-16T13:30:01;5;2;
56069;PMS5003;41944;52.078;-0.058;2022-10-16T13:32:37;3;1;
56069;PMS5003;41944;52.078;-0.058;2022-10-16T13:35:17;3;2;
56069;PMS5003;41944;52.078;-0.058;2022-10-16T13:37:46;4;1;
56069;PMS5003;41944;52.078;-0.058;2022-10-16T13:40:18;0;0;
56069;PMS5003;41944;52.078;-0.058;2022-10-16T13:42:47;3;2;
56069;PMS5003;41944;52.078;-0.058;2022-10-16T13:45:18;2;1;
56069;PMS5003;41944;52.078;-0.058;2022-10-16T13:47:46;0;0;
56069;PMS5003;41944;52.078;-0.058;2022-10-16T13:50:15;2;0;
56069;PMS5003;41944;52.078;-0.058;2022-10-16T13:52:43;5;2;
56069;PMS5003;41944;52.078;-0.058;2022-10-16T13:55:11;3;0;
56069;PMS5003;41944;52.078;-0.058;2022-10-16T13:57:40;1;1;
56069;PMS5003;41944;52.078;-0.058;2022-10-16T14:00:24;4;1;
56069;PMS5003;41944;52.078;-0.058;2022-10-16T14:02:54;3;2;
56069;PMS5003;41944;52.078;-0.058;2022-10-16T14:05:27;3;2;
56069;PMS5003;41944;52.078;-0.058;2022-10-16T14:07:55;6;1;
56069;PMS5003;41944;52.078;-0.058;2022-10-16T14:10:24;4;3;
56069;PMS5003;41944;52.078;-0.058;2022-10-16T14:12:55;32;27;
56069;PMS5003;41944;52.078;-0.058;2022-10-16T14:15:25;19;11;
56069;PMS5003;41944;52.078;-0.058;2022-10-16T14:17:52;14;12;
56069;PMS5003;41944;52.078;-0.058;2022-10-16T14:20:20;8;4;
56069;PMS5003;41944;52.078;-0.058;2022-10-16T14:23:01;6;5;
56069;PMS5003;41944;52.078;-0.058;2022-10-16T14:25:31;5;5;
56069;PMS5003;41944;52.078;-0.058;2022-10-16T14:28:00;5;5;
56069;PMS5003;41944;52.078;-0.058;2022-10-16T14:30:29;10;8;
56069;PMS5003;41944;52.078;-0.058;2022-10-16T14:32:59;6;3;
56069;PMS5003;41944;52.078;-0.058;2022-10-16T14:35:29;4;3;
56069;PMS5003;41944;52.078;-0.058;2022-10-16T14:37:58;3;2;
56069;PMS5003;41944;52.078;-0.058;2022-10-16T14:40:28;7;3;
56069;PMS5003;41944;52.078;-0.058;2022-10-16T14:42:58;10;6;
56069;PMS5003;41944;52.078;-0.058;2022-10-16T14:45:28;6;3;
56069;PMS5003;41944;52.078;-0.058;2022-10-16T14:47:58;4;1;
56069;PMS5003;41944;52.078;-0.058;2022-10-16T14:50:28;8;8;
56069;PMS5003;41944;52.078;-0.058;2022-10-16T14:52:54;3;2;
56069;PMS5003;41944;52.078;-0.058;2022-10-16T14:55:22;5;4;
56069;PMS5003;41944;52.078;-0.058;2022-10-16T14:57:51;4;2;
56069;PMS5003;41944;52.078;-0.058;2022-10-16T15:00:19;4;1;
56069;PMS5003;41944;52.078;-0.058;2022-10-16T15:02:48;5;4;
56069;PMS5003;41944;52.078;-0.058;2022-10-16T15:05:17;5;2;
56069;PMS5003;41944;52.078;-0.058;2022-10-16T15:07:46;2;1;
56069;PMS5003;41944;52.078;-0.058;2022-10-16T15:10:14;6;2;
56069;PMS5003;41944;52.078;-0.058;2022-10-16T15:12:42;8;3;
56069;PMS5003;41944;52.078;-0.058;2022-10-16T15:15:15;7;6;
56069;PMS5003;41944;52.078;-0.058;2022-10-16T15:17:52;5;2;
56069;PMS5003;41944;52.078;-0.058;2022-10-16T15:20:20;4;3;
56069;PMS5003;41944;52.078;-0.058;2022-10-16T15:22:48;4;3;
56069;PMS5003;41944;52.078;-0.058;2022-10-16T15:25:19;6;6;
56069;PMS5003;41944;52.078;-0.058;2022-10-16T15:27:57;5;5;
56069;PMS5003;41944;52.078;-0.058;2022-10-16T15:30:25;3;2;
56069;PMS5003;41944;52.078;-0.058;2022-10-16T15:32:52;4;3;
56069;PMS5003;41944;52.078;-0.058;2022-10-16T15:35:20;5;3;
56069;PMS5003;41944;52.078;-0.058;2022-10-16T15:37:48;3;1;
56069;PMS5003;41944;52.078;-0.058;2022-10-16T15:40:16;5;2;
56069;PMS5003;41944;52.078;-0.058;2022-10-16T15:42:43;7;3;
56069;PMS5003;41944;52.078;-0.058;2022-10-16T15:45:11;4;2;
56069;PMS5003;41944;52.078;-0.058;2022-10-16T15:47:40;3;3;
56069;PMS5003;41944;52.078;-0.058;2022-10-16T15:50:09;8;6;
56069;PMS5003;41944;52.078;-0.058;2022-10-16T15:52:37;4;2;
56069;PMS5003;41944;52.078;-0.058;2022-10-16T15:55:04;11;10;
56069;PMS5003;41944;52.078;-0.058;2022-10-16T15:57:33;2;2;
56069;PMS5003;41944;52.078;-0.058;2022-10-16T15:59:59;4;3;
56069;PMS5003;41944;52.078;-0.058;2022-10-16T16:02:26;4;4;
56069;PMS5003;41944;52.078;-0.058;2022-10-16T16:04:53;3;3;
56069;PMS5003;41944;52.078;-0.058;2022-10-16T16:07:20;8;5;
56069;PMS5003;41944;52.078;-0.058;2022-10-16T16:09:47;8;4;
56069;PMS5003;41944;52.078;-0.058;2022-10-16T16:12:14;3;3;
56069;PMS5003;41944;52.078;-0.058;2022-10-16T16:14:42;6;6;
56069;PMS5003;41944;52.078;-0.058;2022-10-16T16:17:09;10;6;
56069;PMS5003;41944;52.078;-0.058;2022-10-16T16:19:36;6;4;
56069;PMS5003;41944;52.078;-0.058;2022-10-16T16:22:03;8;3;
56069;PMS5003;41944;52.078;-0.058;2022-10-16T16:24:30;5;5;
56069;PMS5003;41944;52.078;-0.058;2022-10-16T16:26:57;8;6;
56069;PMS5003;41944;52.078;-0.058;2022-10-16T16:29:24;11;9;
56069;PMS5003;41944;52.078;-0.058;2022-10-16T16:31:51;4;3;
56069;PMS5003;41944;52.078;-0.058;2022-10-16T16:34:18;4;4;
56069;PMS5003;41944;52.078;-0.058;2022-10-16T16:36:46;15;11;
56069;PMS5003;41944;52.078;-0.058;2022-10-16T16:39:13;14;11;
56069;PMS5003;41944;52.078;-0.058;2022-10-16T16:41:40;17;11;
56069;PMS5003;41944;52.078;-0.058;2022-10-16T16:44:08;18;10;
56069;PMS5003;41944;52.078;-0.058;2022-10-16T16:46:37;12;8;
56069;PMS5003;41944;52.078;-0.058;2022-10-16T16:49:04;65;27;
56069;PMS5003;41944;52.078;-0.058;2022-10-16T16:51:32;89;44;
56069;PMS5003;41944;52.078;-0.058;2022-10-16T16:54:00;14;8;